Terminal Aerodrome Forecast
Issued by NWS Quad Cities IA IL

Home | Current Version | Previous Version | Text Only | Print | Product List | Glossary On
Versions: 1 2 3 4 5 6 7 8 9 10 11 12 13 14 15 16
000
FTUS43 KDVN 251400 AAA
TAFDBQ
TAF AMD
KDBQ 251401Z 2514/2612 18010KT 6SM -RA BR VCTS BKN070CB BKN100
      TEMPO 2514/2516 4SM RA BR SCT050
     FM251600 18014G20KT P6SM SCT015 SCT035
     FM260100 17010KT P6SM SCT040=

USA.gov is the U.S. government's official web portal to all federal, state and local government web resources and services.